Tiempo atmosférico en la estación meteorológica de El Bodón Base Aérea, Salamanca (805 m.)



Fecha
DESCASC
Temp. máxima en grados centígrados (hora)
DESCASC
Temp. mínima en grados centígrados (hora)
DESCASC
Temp. media en grados centígrados
DESCASC
Racha de viento máxima en m/sg (hora)
DESCASC
Velocidad máxima media en intervalos de 10 minutos(hora)
DESCASC
Precipitaciones diarias en mm
DESCASC
Precipitaciones de 00:00 a 06:00 en mm
DESCASC
Precipitaciones de 06:00 a 12:00 en mm
DESCASC
Precipitaciones de 12:00 a 18:00 en mm
DESCASC
Precipitaciones de 18:00 a 24:00 en mm
DESCASC
18-10-2018 18.8 (16:30) 10.4 (04:20) 14.6 11.11 (16:40) 6.94 (17:30) 27.4 10.4 17 0 0
17-10-2018 19.2 (16:00) 3.9 (08:50) 11.6 8.33 (17:40) 5.83 (17:50) 0 0 0 0 0
16-10-2018 16.2 (17:00) 9.3 (23:59) 12.8 6.67 (17:40) 4.17 (17:40) 0 0 0 0 0
15-10-2018 12.6 (17:50) 6.8 (06:40) 9.7 13.06 (09:40) 7.5 (09:30) 4.4 0 4.4 0 0
14-10-2018 19.4 (00:00) 7.4 (00:00) 13.4 15 (00:40) 9.44 (01:00) 4.6 4.4 0.2 0 0
13-10-2018 22.5 (14:40) 14.8 (00:00) 18.7 14.44 (23:40) 8.33 (15:10) 0 0 0 0 0
12-10-2018 19.9 (16:50) 9.5 (00:00) 14.7 9.72 (16:30) 6.94 (12:50) 0 0 0 0 0
11-10-2018 17.8 (17:10) 11.6 (23:10) 14.7 13.33 (03:30) 9.17 (03:50) 0.4 0 0.4 0 0
10-10-2018 18.2 (18:20) 8 (00:00) 13.1 12.5 (17:30) 8.06 (17:10) 0 0 0 0 0
09-10-2018 20.9 (17:10) 2.6 (08:40) 11.7 9.17 (18:50) 4.17 (18:30) 0 0 0 0 0
08-10-2018 20.3 (17:00) 1.5 (07:30) 10.9 8.89 (16:30) 5.28 (17:20) 0 0 0 0 0
07-10-2018 18.1 (17:20) 6.4 (08:30) 12.3 12.22 (10:10) 6.94 (10:30) 0 0 0 0 0
06-10-2018 26.1 (16:00) 7.7 (07:30) 16.9 10.83 (16:40) 7.5 (16:40) 0 0 0 0 0
05-10-2018 26.8 (16:50) 6.9 (09:00) 16.8 9.17 (16:00) 5.28 (16:00) 0 0 0 0 0
04-10-2018 27.4 (16:50) 6.1 (00:00) 16.7 7.22 (16:50) 3.33 (19:40) 0 0 0 0 0
03-10-2018 26.5 (18:00) 4.2 (00:00) 15.3 6.67 (18:30) 4.17 (18:20) 0 0 0 0 0
02-10-2018 22.8 (17:20) 4.4 (00:00) 13.6 7.5 (01:20) 4.72 (03:40) 0 0 0 0 0
01-10-2018 22.7 (17:00) 9.2 (00:00) 16 11.94 (14:00) 7.5 (14:00) 0 0 0 0 0
30-09-2018 28.2 (15:30) 9.7 (00:00) 19 7.78 (17:10) 5.83 (17:00) 0 0 0 0 0
29-09-2018 28.3 (18:00) 9.9 (00:00) 19.1 6.39 (16:20) 3.61 (03:20) 0 0 0 0 0
28-09-2018 28.2 (17:40) 12 (00:00) 20.1 8.06 (15:50) 4.44 (16:00) 0 0 0 0 0
27-09-2018 27.9 (16:20) 17.1 (00:00) 22.5 8.89 (04:50) 5.56 (05:40) 0 0 0 0 0
26-09-2018 26.4 (15:50) 12.4 (00:00) 19.4 11.39 (15:20) 7.5 (14:20) 0 0 0 0 0
25-09-2018 28.4 (18:10) 9.4 (00:00) 18.9 5.28 (05:10) 3.61 (05:10) 0 0 0 0 0
24-09-2018 30.2 (17:50) 10.7 (00:00) 20.5 7.22 (17:30) 4.72 (15:10) 0 0 0 0 0
23-09-2018 31.5 (16:30) 12.1 (07:20) 21.8 7.78 (14:10) 4.17 (14:30) 0 0 0 0 0
22-09-2018 31.2 (18:30) 9.8 (08:20) 20.5 8.33 (18:00) 3.33 (07:50) 0 0 0 0 0
21-09-2018 26.8 (16:50) 10.8 (06:30) 18.8 5.83 (16:30) 3.89 (16:30) 0 0 0 0 0
20-09-2018 29.4 (16:20) 10.9 (08:30) 20.1 9.17 (15:50) 5.83 (16:20) 0 0 0 0 0

Gráficas

Temp. máximas Temp. mínimas Temp. medias Precipitaciones Rachas de viento máximas Velocidades máximas media en intervalos de 10 minutos

Datos horarios

Fecha y hora oficial Temperatura (ºC) Velocidad del viento (km/h) Dirección del viento Racha (km/h) Dirección de racha Precipitación (mm) Presión (hPa) Tendencia (hPa) Humedad (%)
2018-10-19 23:00:00 14 5 Nordeste 12 Noroeste 0 -- -- 89
2018-10-19 22:00:00 14.2 0 Calma 14 Nordeste 0 -- -- 88
2018-10-19 21:00:00 14.3 6 Norte 13 Nordeste 0 -- -- 87
2018-10-19 20:00:00 14.8 10 Norte 26 Nordeste 0 -- -- 85
2018-10-19 19:00:00 15.3 11 Nordeste 31 Este 0 -- -- 82
2018-10-19 18:00:00 15 18 Este 33 Nordeste 0 -- -- 86
2018-10-19 17:00:00 14.6 13 Nordeste 26 Nordeste 0 -- -- 87
2018-10-19 16:00:00 13.7 12 Nordeste 39 Nordeste 0 -- -- 91
2018-10-19 15:00:00 14.4 19 Nordeste 32 Nordeste 0 -- -- 83
2018-10-19 14:00:00 14.6 18 Nordeste 39 Nordeste 0 -- -- 82
2018-10-19 13:00:00 14.4 17 Nordeste 36 Este 0 -- -- 84
2018-10-19 12:00:00 13.8 18 Nordeste 35 Nordeste 0 -- -- 85
2018-10-19 11:00:00 13.4 20 Nordeste 35 Nordeste 0 -- -- 86
2018-10-19 10:00:00 13 18 Nordeste 33 Nordeste 0 -- -- 90
2018-10-19 09:00:00 12.3 16 Nordeste 32 Nordeste 0 -- -- 92
2018-10-19 08:00:00 12.5 16 Nordeste 32 Nordeste 0 -- -- 91
2018-10-19 07:00:00 11.8 13 Norte 26 Norte 0 -- -- 93
2018-10-19 06:00:00 11.3 13 Norte 23 Norte 0 -- -- 92
2018-10-19 05:00:00 11.5 10 Noroeste 18 Noroeste 0 -- -- 91
2018-10-19 04:00:00 11.9 10 Norte 27 Nordeste -- -- -- 89
2018-10-19 03:00:00 11.9 19 Nordeste 32 Nordeste 0 -- -- 89
2018-10-19 02:00:00 11.7 17 Nordeste 26 Nordeste 0 -- -- 89
2018-10-19 01:00:00 12.3 9 Norte 24 Norte 0 -- -- 84
2018-10-19 00:00:00 13.6 17 Nordeste 38 Nordeste 0 -- -- 79
2018-10-18 23:00:00 14.6 17 Nordeste 33 Nordeste 0 -- -- 75
2018-10-18 22:00:00 15 14 Nordeste 31 Nordeste 0 -- -- 70
2018-10-18 21:00:00 15.5 9 Nordeste 21 Nordeste 0 -- -- 63
2018-10-18 20:00:00 16.2 9 Nordeste 18 Norte 0 -- -- 61
2018-10-18 19:00:00 17.2 12 Norte 36 Nordeste 0 -- -- 60
2018-10-18 18:00:00 18.3 15 Nordeste 40 Nordeste 0 -- -- 61
2018-10-18 17:00:00 18.4 24 Nordeste 40 Nordeste 0 -- -- 59
2018-10-18 16:00:00 18.7 19 Nordeste 35 Norte 0 -- -- 58
2018-10-18 15:00:00 17.4 17 Nordeste 27 Norte 0 -- -- 69
2018-10-18 14:00:00 15.9 17 Norte 25 Nordeste 0 -- -- 80
2018-10-18 13:00:00 14.3 9 Norte 16 Norte 0 -- -- 95
2018-10-18 12:00:00 12.4 10 Norte 15 Norte 0 -- -- 98
2018-10-18 11:00:00 11.4 5 Norte 11 Norte 0 -- -- 98
2018-10-18 10:00:00 11 8 Nordeste 18 Norte 0 -- -- 98
2018-10-18 09:00:00 10.5 11 Norte 19 Nordeste 0.8 -- -- 97
2018-10-18 08:00:00 10.7 5 Norte 10 Norte 4.6 -- -- 97
2018-10-18 07:00:00 10.8 4 Este 9 Noroeste 11.6 -- -- 97
2018-10-18 06:00:00 10.6 5 Oeste 10 Noroeste 9.8 -- -- 96
2018-10-18 05:00:00 10.4 6 Noroeste 15 Norte 0.4 -- -- 96
2018-10-18 04:00:00 10.5 8 Norte 14 Norte 0 -- -- 94
2018-10-18 03:00:00 10.8 8 Norte 13 Norte 0 -- -- 93
2018-10-18 02:00:00 11.3 7 Noroeste 14 Noroeste 0.2 -- -- 91
2018-10-18 01:00:00 11.8 7 Norte 14 Norte 0 -- -- 90
2018-10-18 00:00:00 11.4 5 Noroeste 8 Noroeste 0 -- -- 90
2018-10-17 23:00:00 12 3 Norte 9 Norte 0 -- -- 88
2018-10-17 22:00:00 12 6 Norte 16 Norte 0 -- -- 86
2018-10-17 21:00:00 13.5 9 Norte 20 Noroeste 0 -- -- 79
2018-10-17 20:00:00 15.9 8 Sur 24 Sur 0 -- -- 64
2018-10-17 19:00:00 16.8 16 Sur 27 Sur 0 -- -- 59
2018-10-17 18:00:00 17.9 20 Sur 30 Sur 0 -- -- 56
2018-10-17 17:00:00 18.1 17 Sur 29 Sur 0 -- -- 57
2018-10-17 16:00:00 19.2 18 Sur 29 Sur 0 -- -- 55
2018-10-17 15:00:00 18.1 7 Sur 19 Sudoeste 0 -- -- 58
2018-10-17 14:00:00 17.7 4 Sudeste 13 Sur 0 -- -- 62
2018-10-17 13:00:00 14.9 5 Norte 10 Noroeste 0 -- -- 81
2018-10-17 12:00:00 11.8 0 Calma 8 Sudeste 0 -- -- 98
2018-10-17 11:00:00 8.3 4 Sudeste 9 Sur 0 -- -- 99
2018-10-17 10:00:00 4.8 7 Sur 12 Sur 0 -- -- 98
2018-10-17 09:00:00 4 7 Sur 9 Sudeste 0 -- -- 97
2018-10-17 08:00:00 4.2 9 Sur 13 Sur 0 -- -- 96
2018-10-17 07:00:00 4.5 10 Sur 13 Sudeste 0 -- -- 96
2018-10-17 06:00:00 5.4 5 Sur 10 Sur 0 -- -- 96
2018-10-17 05:00:00 5.1 6 Sur 12 Sur 0 -- -- 96
2018-10-17 04:00:00 5.8 9 Sur 12 Sur 0 -- -- 95
2018-10-17 03:00:00 6.7 7 Sur 9 Sur 0 -- -- 94
2018-10-17 02:00:00 7.4 0 Calma 4 Sur 0 -- -- 93
2018-10-17 01:00:00 8.3 2 Oeste 7 Sudeste 0 -- -- 92
2018-10-17 00:00:00 9.3 0 Calma 4 Noroeste 0 -- -- 90
2018-10-16 23:00:00 9.7 3 Noroeste 10 Norte 0 -- -- 88
2018-10-16 22:00:00 10.6 6 Noroeste 9 Norte 0 -- -- 84
2018-10-16 21:00:00 11.9 5 Norte 13 Norte 0 -- -- 80
2018-10-16 20:00:00 13.2 7 Norte 18 Norte 0 -- -- 74
2018-10-16 19:00:00 15.2 12 Norte 23 Norte 0 -- -- 67
2018-10-16 18:00:00 15.7 13 Norte 24 Nordeste 0 -- -- 66
2018-10-16 17:00:00 16.2 12 Norte 23 Nordeste 0 -- -- 66
2018-10-16 16:00:00 15.3 12 Norte 22 Norte 0 -- -- 71
2018-10-16 15:00:00 14.8 10 Norte 19 Nordeste 0 -- -- 72
2018-10-16 14:00:00 13.6 9 Norte 20 Noroeste 0 -- -- 79
2018-10-16 13:00:00 12.1 11 Norte 21 Nordeste 0 -- -- 84
2018-10-16 12:00:00 11.8 13 Nordeste 20 Nordeste 0 -- -- 88
2018-10-16 11:00:00 10.9 9 Norte 17 Norte 0 -- -- 94
2018-10-16 10:00:00 10.1 9 Norte 16 Nordeste 0 -- -- 96
2018-10-16 09:00:00 9.7 5 Norte 15 Norte 0 -- -- 96
2018-10-16 08:00:00 10.3 9 Norte 15 Norte 0 -- -- 96
2018-10-16 07:00:00 10.7 5 Norte 11 Noroeste 0 -- -- 96
2018-10-16 06:00:00 10.7 5 Norte 7 Norte 0 -- -- 96
2018-10-16 05:00:00 10.6 4 Nordeste 7 Norte 0 -- -- 95
2018-10-16 04:00:00 10.4 5 Norte 6 Noroeste 0 -- -- 95
2018-10-16 03:00:00 10.3 4 Norte 5 Norte 0 -- -- 95
2018-10-16 02:00:00 10.1 3 Este 4 Nordeste 0 -- -- 95
2018-10-16 01:00:00 10.1 2 Oeste 5 Este 0 -- -- 94
2018-10-16 00:00:00 10.3 3 Sudeste 8 Sur 0 -- -- 94
2018-10-15 23:00:00 10.4 5 Sur 17 Sur 0 -- -- 93
2018-10-15 22:00:00 10.5 9 Sur 13 Sur 0 -- -- 94
2018-10-15 21:00:00 10.4 9 Sur 21 Sur 0 -- -- 93
2018-10-15 20:00:00 10.7 14 Sur 25 Sur 0 -- -- 92
2018-10-15 19:00:00 11.2 16 Sur 28 Sur 0 -- -- 88
2018-10-15 18:00:00 12.4 15 Sur 27 Sudeste 0 -- -- 82
2018-10-15 17:00:00 11.4 14 Sur 28 Sur 0 -- -- 88
2018-10-15 16:00:00 11.7 15 Sur 30 Sur 0 -- -- 84
2018-10-15 15:00:00 11.8 19 Sur 33 Sudeste 0 -- -- 84
2018-10-15 14:00:00 11.8 19 Sur 37 Sur 0 -- -- 84
2018-10-15 13:00:00 10.6 23 Sur 38 Sudeste 0 -- -- 92
2018-10-15 12:00:00 8.7 25 Sur 41 Sur 2.4 -- -- 96
2018-10-15 11:00:00 8 24 Sur 42 Sudeste 1.4 -- -- 94
2018-10-15 10:00:00 7.7 23 Sur 47 Sur 0.6 -- -- 92
2018-10-15 09:00:00 8.1 21 Sur 36 Sur 0 -- -- 89
2018-10-15 08:00:00 8.5 17 Sur 27 Sudeste 0 -- -- 82
2018-10-15 07:00:00 7 13 Sur 21 Sur 0 -- -- 81
2018-10-15 06:00:00 7.2 10 Sudeste 17 Sur 0 -- -- 86
2018-10-15 05:00:00 7.1 6 Sur 11 Sur 0 -- -- 90
2018-10-15 04:00:00 6.9 8 Sudeste 11 Sudeste 0 -- -- 90
2018-10-15 03:00:00 7.3 5 Sudeste 10 Sudeste 0 -- -- 88
2018-10-15 02:00:00 7.7 7 Oeste 17 Sudoeste 0 -- -- 86
2018-10-15 01:00:00 7.5 8 Oeste 18 Oeste 0 -- -- 87
2018-10-15 00:00:00 7.8 7 Oeste 25 Oeste 0 -- -- 85
2018-10-14 23:00:00 8.4 14 Oeste 28 Oeste 0 -- -- 84
2018-10-14 22:00:00 9.1 15 Oeste 29 Noroeste 0 -- -- 82
2018-10-14 21:00:00 10.2 15 Oeste 25 Noroeste 0 -- -- 77
2018-10-14 20:00:00 11.4 17 Noroeste 33 Noroeste 0 -- -- 66
2018-10-14 19:00:00 12.6 21 Noroeste 36 Noroeste 0 -- -- 63
2018-10-14 18:00:00 12.8 22 Noroeste 39 Noroeste 0 -- -- 62
2018-10-14 17:00:00 12.5 26 Noroeste 37 Oeste 0 -- -- 65
2018-10-14 16:00:00 12.7 23 Noroeste 40 Noroeste 0 -- -- 65
2018-10-14 15:00:00 11.7 21 Noroeste 42 Noroeste 0 -- -- 69
2018-10-14 14:00:00 11.3 24 Noroeste 42 Noroeste 0 -- -- 68
2018-10-14 13:00:00 10.7 27 Noroeste 40 Noroeste 0 -- -- 72
2018-10-14 12:00:00 9.7 27 Noroeste 43 Noroeste 0 -- -- 76
2018-10-14 11:00:00 9.2 24 Noroeste 44 Noroeste 0 -- -- 76
2018-10-14 10:00:00 7.9 24 Noroeste 42 Noroeste 0 -- -- 83
2018-10-14 09:00:00 7.7 19 Noroeste 33 Noroeste 0 -- -- 86
2018-10-14 08:00:00 8.1 22 Noroeste 38 Oeste 0 -- -- 87
2018-10-14 07:00:00 9.5 23 Oeste 41 Oeste 0.2 -- -- 91
2018-10-14 06:00:00 11 13 Oeste 20 Oeste 0 -- -- 89
2018-10-14 05:00:00 11.7 13 Oeste 21 Sudoeste 0 -- -- 86
2018-10-14 04:00:00 12.2 11 Sudoeste 28 Sudoeste 0 -- -- 86
2018-10-14 03:00:00 13.6 15 Sudoeste 31 Sur 0 -- -- 89
2018-10-14 02:00:00 14.4 24 Sur 52 Sur 3.8 -- -- 92
2018-10-14 01:00:00 15.8 34 Sur 54 Sur 0.6 -- -- 77
2018-10-14 00:00:00 19.4 28 Sur 52 Sudeste 0 -- -- 59
2018-10-13 23:00:00 19.7 27 Sur 44 Sur 0 -- -- 57
2018-10-13 22:00:00 19.7 18 Sur 35 Sur 0 -- -- 61
2018-10-13 21:00:00 20.4 20 Sudeste 37 Sudeste 0 -- -- 59
2018-10-13 20:00:00 20.7 12 Sur 34 Sur 0 -- -- 61
2018-10-13 19:00:00 22 19 Sudeste 40 Sudeste 0 -- -- 59
2018-10-13 18:00:00 22.1 22 Sudeste 41 Sur 0 -- -- 60
2018-10-13 17:00:00 22.3 25 Sur 46 Sur 0 -- -- 60
2018-10-13 16:00:00 22.4 26 Sur 50 Sudeste 0 -- -- 58
2018-10-13 15:00:00 22.5 26 Sur 49 Sur 0 -- -- 57
2018-10-13 14:00:00 21.1 18 Sur 44 Sur 0 -- -- 64
2018-10-13 13:00:00 20.3 20 Sur 40 Sur 0 -- -- 66
2018-10-13 12:00:00 19.5 18 Sur 43 Sudeste 0 -- -- 73
2018-10-13 11:00:00 17.9 23 Sur 42 Sudeste 0 -- -- 81
2018-10-13 10:00:00 16.2 13 Sur 27 Sur 0 -- -- 88
2018-10-13 09:00:00 15.1 11 Sur 19 Sur 0 -- -- 90
2018-10-13 08:00:00 15 6 Sur 17 Sur 0 -- -- 87
2018-10-13 07:00:00 14.9 11 Sur 23 Sur 0 -- -- 87
2018-10-13 06:00:00 15.4 10 Sur 26 Sur 0 -- -- 88
2018-10-13 05:00:00 15.1 13 Sur 27 Sur 0 -- -- 89
2018-10-13 04:00:00 15.2 18 Sur 30 Sur 0 -- -- 89
2018-10-13 03:00:00 15.5 12 Sur 26 Sur 0 -- -- 89
2018-10-13 02:00:00 15.5 12 Sur 26 Sudeste 0 -- -- 86
2018-10-13 01:00:00 15.5 15 Sur 23 Sudeste 0 -- -- 83
2018-10-13 00:00:00 15.1 12 Sur 19 Sur 0 -- -- 83
2018-10-12 23:00:00 15.1 11 Sur 17 Sur 0 -- -- 80
2018-10-12 22:00:00 15.6 10 Sur 19 Sur 0 -- -- 76
2018-10-12 21:00:00 16.4 9 Sur 16 Sur 0 -- -- 73
2018-10-12 20:00:00 17.7 10 Sur 25 Sudeste 0 -- -- 68
2018-10-12 19:00:00 18.5 14 Sur 27 Sur 0 -- -- 64
2018-10-12 18:00:00 19.1 18 Sur 31 Sur 0 -- -- 61
2018-10-12 17:00:00 19.9 19 Sudoeste 35 Sur 0 -- -- 57
2018-10-12 16:00:00 19.6 17 Sur 35 Sur 0 -- -- 57
2018-10-12 15:00:00 19.4 17 Sudeste 33 Sur 0 -- -- 57
2018-10-12 14:00:00 19.6 20 Sur 35 Sur 0 -- -- 55
2018-10-12 13:00:00 18.3 23 Sur 35 Sur 0 -- -- 60
2018-10-12 12:00:00 16.7 22 Sur 33 Sur 0 -- -- 67
2018-10-12 11:00:00 14.4 17 Sur 27 Sur 0 -- -- 75
2018-10-12 10:00:00 11.5 11 Sur 22 Sur 0 -- -- 87
2018-10-12 09:00:00 9.9 13 Sur 21 Sudeste 0 -- -- 88
2018-10-12 08:00:00 10.1 12 Sur 18 Sur 0 -- -- 87
2018-10-12 07:00:00 10.2 11 Sur 18 Sur 0 -- -- 87
2018-10-12 06:00:00 10.7 8 Sudeste 14 Sur 0 -- -- 90
2018-10-12 05:00:00 11.5 10 Sur 21 Sur 0 -- -- 88
2018-10-12 04:00:00 11.5 11 Sur 19 Sur 0 -- -- 91
2018-10-12 03:00:00 11.7 10 Sur 18 Sur 0 -- -- 91
2018-10-12 02:00:00 11.6 11 Sur 17 Sudeste 0 -- -- 93
2018-10-12 01:00:00 11.1 8 Sur 11 Sur 0 -- -- 89
2018-10-12 00:00:00 12.3 8 Sur 13 Sur 0 -- -- 88
2018-10-11 23:00:00 11.8 10 Sur 14 Sur 0 -- -- 88
2018-10-11 22:00:00 12.7 8 Sur 15 Sur 0 -- -- 88
2018-10-11 21:00:00 14.1 12 Sur 17 Sur 0 -- -- 86
2018-10-11 20:00:00 15.3 14 Sur 31 Sur 0 -- -- 81
2018-10-11 19:00:00 16.6 20 Sur 36 Sur 0 -- -- 79
2018-10-11 18:00:00 17 18 Sudoeste 41 Sur 0 -- -- 79
2018-10-11 17:00:00 17.5 29 Sur 46 Sur 0 -- -- 77
2018-10-11 16:00:00 16 24 Sur 39 Sur 0 -- -- 89
2018-10-11 15:00:00 16.7 25 Sur 40 Sur 0 -- -- 81
2018-10-11 14:00:00 16.2 29 Sur 41 Sur 0 -- -- 83
2018-10-11 13:00:00 15.9 26 Sur 43 Sur 0 -- -- 86
2018-10-11 12:00:00 14.6 19 Sur 37 Sur 0 -- -- 90
2018-10-11 11:00:00 14.4 20 Sur 35 Sur 0 -- -- 88
2018-10-11 10:00:00 13.9 22 Sur 32 Sur 0 -- -- 94
2018-10-11 09:00:00 13.6 28 Sur 40 Sur 0 -- -- 94
2018-10-11 08:00:00 13.1 17 Sur 30 Sur 0.2 -- -- 94
2018-10-11 07:00:00 13.1 19 Sur 42 Sur 0.2 -- -- 92
2018-10-11 06:00:00 13.8 26 Sur 37 Sur 0 -- -- 87
2018-10-11 05:00:00 13.9 26 Sur 40 Sur 0 -- -- 85
2018-10-11 04:00:00 14.5 32 Sur 48 Sur 0 -- -- 82
2018-10-11 03:00:00 14.4 27 Sur 41 Sur 0 -- -- 81
2018-10-11 02:00:00 15 17 Sur 34 Sur 0 -- -- 76
2018-10-11 01:00:00 15.1 18 Sur 42 Sur 0 -- -- 69
2018-10-11 00:00:00 16 26 Sur 41 Sur 0 -- -- 64
2018-10-10 23:00:00 16.5 25 Sur 42 Sur 0 -- -- 61
2018-10-10 22:00:00 16 18 Sur 27 Sur 0 -- -- 63
2018-10-10 21:00:00 15 13 Sur 20 Sur 0 -- -- 67
2018-10-10 20:00:00 16.1 15 Sur 29 Sur 0 -- -- 65
2018-10-10 19:00:00 17.3 15 Sur 39 Sur 0 -- -- 61
2018-10-10 18:00:00 17.7 25 Sur 45 Sur 0 -- -- 58
2018-10-10 17:00:00 17.6 25 Sur 40 Sur 0 -- -- 60
2018-10-10 16:00:00 16.2 19 Sur 33 Sur 0 -- -- 68
2018-10-10 15:00:00 15.3 17 Sur 30 Sur 0 -- -- 71
2018-10-10 14:00:00 15.6 19 Sur 37 Sur 0 -- -- 70
2018-10-10 13:00:00 16 22 Sur 38 Sur 0 -- -- 67
2018-10-10 12:00:00 15.3 23 Sur 40 Sur 0 -- -- 70
2018-10-10 11:00:00 14.2 20 Sur 38 Sudeste 0 -- -- 74
2018-10-10 10:00:00 12.7 14 Sur 26 Sur 0 -- -- 79
2018-10-10 09:00:00 9.5 12 Sur 21 Sur 0 -- -- 87
2018-10-10 08:00:00 8.4 12 Sur 17 Sur 0 -- -- 87
2018-10-10 07:00:00 8.2 12 Sur 19 Sur 0 -- -- 84
2018-10-10 06:00:00 8.6 11 Sur 15 Sur 0 -- -- 81
2018-10-10 05:00:00 9 11 Sur 15 Sur 0 -- -- 76
2018-10-10 04:00:00 9.5 9 Sur 13 Sur 0 -- -- 72
2018-10-10 03:00:00 10.3 9 Sur 15 Sur 0 -- -- 67
2018-10-10 02:00:00 11 9 Sur 15 Sudeste 0 -- -- 63
2018-10-10 01:00:00 11.7 9 Sur 14 Sur 0 -- -- 59
2018-10-10 00:00:00 12.4 8 Sur 15 Sudeste 0 -- -- 56
2018-10-09 23:00:00 13 7 Sur 16 Sur 0 -- -- 56
2018-10-09 22:00:00 14.6 9 Sur 17 Sur 0 -- -- 53
2018-10-09 21:00:00 15.9 9 Sur 19 Sur 0 -- -- 50
2018-10-09 20:00:00 16.6 11 Sur 20 Sur 0 -- -- 47
2018-10-09 19:00:00 18.7 14 Sur 33 Sudeste 0 -- -- 41
2018-10-09 18:00:00 20 5 Noroeste 17 Oeste 0 -- -- 39
2018-10-09 17:00:00 20.4 7 Sudoeste 19 Sur 0 -- -- 37
2018-10-09 16:00:00 19.5 9 Sudoeste 19 Oeste 0 -- -- 38
2018-10-09 15:00:00 19.1 5 Noroeste 16 Nordeste 0 -- -- 41
2018-10-09 14:00:00 17.1 6 Norte 15 Noroeste 0 -- -- 46
2018-10-09 13:00:00 15 9 Norte 19 Norte 0 -- -- 53
2018-10-09 12:00:00 12.9 5 Norte 11 Noroeste 0 -- -- 61
2018-10-09 11:00:00 9.2 2 Norte 10 Norte 0 -- -- 75
2018-10-09 10:00:00 5.2 2 Norte 8 Sur 0 -- -- 90
2018-10-09 09:00:00 2.8 2 Sudeste 8 Sur 0 -- -- 90
2018-10-09 08:00:00 3.1 3 Sudeste 10 Sur 0 -- -- 88
2018-10-09 07:00:00 3.9 3 Noroeste 10 Sur 0 -- -- 87
2018-10-09 06:00:00 3.7 9 Sur 14 Sur 0 -- -- 86
2018-10-09 05:00:00 4.7 10 Sur 12 Sur 0 -- -- 84
2018-10-09 04:00:00 5.4 8 Sudeste 15 Sur 0 -- -- 83
2018-10-09 03:00:00 6.7 9 Sur 13 Sudeste 0 -- -- 75
2018-10-09 02:00:00 7.8 7 Sur 12 Este 0 -- -- 73
2018-10-09 01:00:00 11.5 10 Este 17 Nordeste 0 -- -- 60
2018-10-09 00:00:00 12.7 9 Nordeste 21 Nordeste 0 -- -- 56
2018-10-08 23:00:00 13.2 8 Nordeste 17 Nordeste 0 -- -- 54
2018-10-08 22:00:00 13.5 8 Nordeste 15 Nordeste 0 -- -- 52
2018-10-08 21:00:00 15 8 Nordeste 19 Nordeste 0 -- -- 47
2018-10-08 20:00:00 16.9 10 Nordeste 28 Norte 0 -- -- 43
2018-10-08 19:00:00 18.8 17 Norte 31 Norte 0 -- -- 39
2018-10-08 18:00:00 19.7 17 Norte 31 Nordeste 0 -- -- 38
2018-10-08 17:00:00 20.3 15 Nordeste 32 Nordeste 0 -- -- 37
2018-10-08 16:00:00 19.8 16 Norte 29 Norte 0 -- -- 40
2018-10-08 15:00:00 19.8 14 Norte 29 Norte 0 -- -- 42
2018-10-08 14:00:00 18.9 9 Norte 18 Noroeste 0 -- -- 40
2018-10-08 13:00:00 17.6 6 Nordeste 18 Este 0 -- -- 44
2018-10-08 12:00:00 15 6 Norte 12 Norte 0 -- -- 50
2018-10-08 11:00:00 10.7 3 Sudoeste 7 Sudoeste 0 -- -- 63
2018-10-08 10:00:00 4.8 6 Sur 12 Sur 0 -- -- 81
2018-10-08 09:00:00 1.5 9 Sur 12 Sur 0 -- -- 84
2018-10-08 08:00:00 1.7 9 Sur 14 Sur 0 -- -- 83
2018-10-08 07:00:00 1.8 9 Sur 13 Sur 0 -- -- 83
2018-10-08 06:00:00 2.3 7 Sur 10 Sudeste 0 -- -- 80
2018-10-08 05:00:00 3 5 Sur 12 Sur 0 -- -- 76
2018-10-08 04:00:00 4.5 3 Sudeste 10 Sudeste 0 -- -- 71
2018-10-08 03:00:00 9.2 2 Norte 14 Nordeste 0 -- -- 53
2018-10-08 02:00:00 9.8 6 Nordeste 15 Nordeste 0 -- -- 51
2018-10-08 01:00:00 10.4 7 Nordeste 17 Nordeste 0 -- -- 50
2018-10-08 00:00:00 11.4 10 Nordeste 23 Nordeste 0 -- -- 47
2018-10-07 23:00:00 11.9 13 Nordeste 25 Nordeste 0 -- -- 45
2018-10-07 22:00:00 12.6 12 Nordeste 26 Nordeste 0 -- -- 44
2018-10-07 21:00:00 13 11 Norte 23 Nordeste 0 -- -- 42
2018-10-07 20:00:00 14.9 17 Nordeste 36 Norte 0 -- -- 38
2018-10-07 19:00:00 16.7 19 Nordeste 35 Norte 0 -- -- 35
2018-10-07 18:00:00 17.5 21 Nordeste 36 Norte 0 -- -- 33
2018-10-07 17:00:00 17.9 21 Nordeste 35 Norte 0 -- -- 33
2018-10-07 16:00:00 17.5 20 Nordeste 36 Norte 0 -- -- 35
2018-10-07 15:00:00 17.1 19 Norte 37 Norte 0 -- -- 38
2018-10-07 14:00:00 15.3 21 Nordeste 38 Norte 0 -- -- 43
2018-10-07 13:00:00 13.6 22 Nordeste 41 Nordeste 0 -- -- 48
2018-10-07 12:00:00 11.8 21 Nordeste 44 Nordeste 0 -- -- 54
2018-10-07 11:00:00 9.9 23 Nordeste 44 Nordeste 0 -- -- 56
2018-10-07 10:00:00 7.8 19 Nordeste 36 Nordeste 0 -- -- 63
2018-10-07 09:00:00 6.7 21 Norte 36 Norte 0 -- -- 68
2018-10-07 08:00:00 6.8 19 Norte 39 Norte 0 -- -- 69
2018-10-07 07:00:00 7.5 19 Norte 39 Norte 0 -- -- 66
2018-10-07 06:00:00 8.5 19 Nordeste 39 Nordeste 0 -- -- 66
2018-10-07 05:00:00 8.6 12 Norte 20 Norte 0 -- -- 65
2018-10-07 04:00:00 9.1 14 Norte 22 Norte 0 -- -- 67
2018-10-07 03:00:00 9.7 15 Norte 22 Norte 0 -- -- 75
2018-10-07 02:00:00 10.1 9 Norte 18 Norte 0 -- -- 77
2018-10-07 01:00:00 10.9 13 Norte 25 Norte 0 -- -- 78
2018-10-07 00:00:00 12.2 15 Norte 22 Noroeste 0 -- -- 73
2018-10-06 23:00:00 13.7 14 Norte 30 Norte 0 -- -- 68
2018-10-06 22:00:00 16 13 Norte 28 Norte 0 -- -- 60
2018-10-06 21:00:00 17.7 15 Noroeste 24 Noroeste 0 -- -- 53
2018-10-06 20:00:00 20.5 14 Noroeste 31 Noroeste 0 -- -- 42
2018-10-06 19:00:00 23 18 Oeste 35 Noroeste 0 -- -- 36
2018-10-06 18:00:00 24.7 24 Oeste 35 Oeste 0 -- -- 30
2018-10-06 17:00:00 24.7 21 Noroeste 39 Noroeste 0 -- -- 31
2018-10-06 16:00:00 26.1 17 Oeste 31 Noroeste 0 -- -- 29
2018-10-06 15:00:00 25.9 18 Oeste 36 Oeste 0 -- -- 29
2018-10-06 14:00:00 25.6 15 Oeste 30 Oeste 0 -- -- 30
2018-10-06 13:00:00 24.3 12 Oeste 27 Oeste 0 -- -- 32
2018-10-06 12:00:00 22.8 4 Noroeste 10 Noroeste 0 -- -- 35
2018-10-06 11:00:00 18.4 6 Sur 12 Sur 0 -- -- 49
2018-10-06 10:00:00 11.4 10 Sur 17 Sur 0 -- -- 67
2018-10-06 09:00:00 7.9 12 Sur 17 Sur 0 -- -- 75
2018-10-06 08:00:00 8.3 13 Sur 18 Sur 0 -- -- 73
2018-10-06 07:00:00 7.9 14 Sur 18 Sur 0 -- -- 76
2018-10-06 06:00:00 8.9 9 Sur 14 Sur 0 -- -- 69
2018-10-06 05:00:00 8.4 12 Sur 19 Sur 0 -- -- 72
2018-10-06 04:00:00 9.1 12 Sur 16 Sur 0 -- -- 72
2018-10-06 03:00:00 10 11 Sur 13 Sudeste 0 -- -- 68
2018-10-06 02:00:00 11.6 10 Sur 15 Sur 0 -- -- 61
2018-10-06 01:00:00 12.4 11 Sur 14 Sur 0 -- -- 59
2018-10-06 00:00:00 14.5 9 Sur 12 Sudeste 0 -- -- 53
2018-10-05 23:00:00 17.9 3 Oeste 15 Oeste 0 -- -- 39
2018-10-05 22:00:00 19.4 10 Oeste 21 Oeste 0 -- -- 36
2018-10-05 21:00:00 20.1 9 Oeste 14 Oeste 0 -- -- 33
2018-10-05 20:00:00 22.7 11 Sur 20 Sudoeste 0 -- -- 31
2018-10-05 19:00:00 25.5 13 Sur 23 Sur 0 -- -- 26
2018-10-05 18:00:00 26.5 14 Sudoeste 26 Sur 0 -- -- 25
2018-10-05 17:00:00 26.8 16 Sudoeste 32 Sur 0 -- -- 26
2018-10-05 16:00:00 26.5 19 Sur 33 Sur 0 -- -- 24
2018-10-05 15:00:00 26.5 12 Sur 26 Sudoeste 0 -- -- 26
2018-10-05 14:00:00 25.6 11 Sur 23 Sudoeste 0 -- -- 27
2018-10-05 13:00:00 24.6 11 Sudoeste 20 Sudoeste 0 -- -- 31
2018-10-05 12:00:00 22.3 9 Sur 17 Sur 0 -- -- 35
2018-10-05 11:00:00 17.7 5 Sur 15 Sudeste 0 -- -- 49
2018-10-05 10:00:00 10.4 11 Sur 15 Sur 0 -- -- 72
2018-10-05 09:00:00 6.9 13 Sur 19 Sur 0 -- -- 79
2018-10-05 08:00:00 7.5 13 Sur 19 Sur 0 -- -- 74
2018-10-05 07:00:00 7.5 14 Sur 18 Sur 0 -- -- 73
2018-10-05 06:00:00 7.8 14 Sur 17 Sur 0 -- -- 72
2018-10-05 05:00:00 8.5 11 Sur 15 Sudeste 0 -- -- 65
2018-10-05 04:00:00 9.2 12 Sur 15 Sur 0 -- -- 64
2018-10-05 03:00:00 10.2 12 Sur 15 Sur 0 -- -- 60
2018-10-05 02:00:00 10.2 11 Sur 13 Sur 0 -- -- 64
2018-10-05 01:00:00 12.7 5 Sudoeste 11 Sudoeste 0 -- -- 54
2018-10-05 00:00:00 13.9 8 Sur 13 Sur 0 -- -- 54
2018-10-04 23:00:00 16 9 Sur 12 Sur 0 -- -- 44
2018-10-04 22:00:00 19.9 4 Norte 9 Noroeste 0 -- -- 32
2018-10-04 21:00:00 20.7 5 Noroeste 14 Noroeste 0 -- -- 33
2018-10-04 20:00:00 23.7 9 Noroeste 17 Noroeste 0 -- -- 31
2018-10-04 19:00:00 26.6 9 Noroeste 15 Noroeste 0 -- -- 24
2018-10-04 18:00:00 26.9 8 Norte 17 Norte 0 -- -- 23
2018-10-04 17:00:00 27 6 Norte 26 Sur 0 -- -- 24
2018-10-04 16:00:00 26.4 4 Este 13 Noroeste 0 -- -- 24
2018-10-04 15:00:00 25.5 5 Oeste 13 Noroeste 0 -- -- 28
2018-10-04 14:00:00 23.3 6 Norte 14 Norte 0 -- -- 35
2018-10-04 13:00:00 21.3 8 Norte 12 Norte 0 -- -- 40
2018-10-04 12:00:00 18.2 8 Norte 10 Norte 0 -- -- 48
2018-10-04 11:00:00 14.3 2 Norte 6 Noroeste 0 -- -- 58
2018-10-04 10:00:00 8.9 5 Sur 10 Sur 0 -- -- 79
2018-10-04 09:00:00 6.2 6 Sur 11 Sur 0 -- -- 83
2018-10-04 08:00:00 6.1 7 Sur 11 Sur 0 -- -- 83
2018-10-04 07:00:00 6.7 6 Sudoeste 12 Sur 0 -- -- 81
2018-10-04 06:00:00 8.2 0 Calma 7 Noroeste 0 -- -- 72
2018-10-04 05:00:00 9.2 3 Noroeste 12 Sur 0 -- -- 69
2018-10-04 04:00:00 8.7 9 Sur 10 Sur 0 -- -- 72
2018-10-04 03:00:00 9.3 7 Sur 12 Sur 0 -- -- 72
2018-10-04 02:00:00 11.2 7 Sur 14 Sur 0 -- -- 66
2018-10-04 01:00:00 14.8 3 Norte 7 Norte 0 -- -- 49
2018-10-04 00:00:00 16 0 Calma 5 Nordeste 0 -- -- 45
2018-10-03 23:00:00 17.3 3 Nordeste 9 Nordeste 0 -- -- 44
2018-10-03 22:00:00 19.1 6 Norte 10 Nordeste 0 -- -- 38
2018-10-03 21:00:00 20.7 7 Nordeste 10 Nordeste 0 -- -- 35
2018-10-03 20:00:00 23.7 8 Norte 19 Norte 0 -- -- 30
2018-10-03 19:00:00 25.6 12 Norte 24 Norte 0 -- -- 26
2018-10-03 18:00:00 26.5 10 Norte 22 Norte 0 -- -- 23
2018-10-03 17:00:00 26.2 9 Norte 21 Norte 0 -- -- 23
2018-10-03 16:00:00 25.5 8 Nordeste 23 Noroeste 0 -- -- 25
2018-10-03 15:00:00 23.8 12 Norte 22 Norte 0 -- -- 28
2018-10-03 14:00:00 21.1 7 Norte 13 Norte 0 -- -- 33
2018-10-03 13:00:00 18.1 9 Norte 18 Norte 0 -- -- 36
2018-10-03 12:00:00 16 8 Norte 12 Norte 0 -- -- 40
2018-10-03 11:00:00 12.3 5 Noroeste 9 Oeste 0 -- -- 49
2018-10-03 10:00:00 7.4 2 Sur 12 Sur 0 -- -- 66
2018-10-03 09:00:00 4.4 6 Sur 8 Sur 0 -- -- 73
2018-10-03 08:00:00 4.4 4 Sur 11 Sudeste 0 -- -- 75
2018-10-03 07:00:00 5.1 7 Sur 10 Sur 0 -- -- 70
2018-10-03 06:00:00 6 7 Sur 13 Sur 0 -- -- 67
2018-10-03 05:00:00 6.5 9 Sur 13 Sur 0 -- -- 69
2018-10-03 04:00:00 7.5 11 Sudeste 14 Sur 0 -- -- 59
2018-10-03 03:00:00 7.8 9 Sur 13 Sur 0 -- -- 59
2018-10-03 02:00:00 8 12 Sur 14 Sur 0 -- -- 61
2018-10-03 01:00:00 10.2 6 Sur 10 Sur 0 -- -- 56
2018-10-03 00:00:00 13.9 4 Norte 6 Noroeste 0 -- -- 36
2018-10-02 23:00:00 14.6 4 Nordeste 6 Nordeste 0 -- -- 35
2018-10-02 22:00:00 15.8 3 Nordeste 10 Nordeste 0 -- -- 31
2018-10-02 21:00:00 17.5 6 Norte 13 Norte 0 -- -- 28
2018-10-02 20:00:00 20.3 9 Norte 23 Nordeste 0 -- -- 24
2018-10-02 19:00:00 22.5 14 Norte 25 Norte 0 -- -- 22
2018-10-02 18:00:00 22.7 15 Norte 22 Norte 0 -- -- 23
2018-10-02 17:00:00 22.5 10 Norte 21 Noroeste 0 -- -- 26
2018-10-02 16:00:00 21.9 10 Nordeste 22 Noroeste 0 -- -- 29
2018-10-02 15:00:00 20.8 8 Nordeste 22 Norte 0 -- -- 32
2018-10-02 14:00:00 18.8 9 Norte 21 Norte 0 -- -- 37
2018-10-02 13:00:00 16 11 Norte 20 Norte 0 -- -- 44
2018-10-02 12:00:00 12.8 10 Norte 14 Norte 0 -- -- 56
2018-10-02 11:00:00 9.4 6 Nordeste 12 Norte 0 -- -- 68
2018-10-02 10:00:00 6.4 6 Norte 9 Norte 0 -- -- 81
2018-10-02 09:00:00 4.6 3 Norte 8 Norte 0 -- -- 83
2018-10-02 08:00:00 5.2 4 Norte 15 Norte 0 -- -- 79
2018-10-02 07:00:00 6.6 8 Norte 21 Norte 0 -- -- 78
2018-10-02 06:00:00 6.7 10 Noroeste 15 Norte 0 -- -- 77
2018-10-02 05:00:00 7.8 11 Norte 23 Norte 0 -- -- 71
2018-10-02 04:00:00 9.7 15 Norte 24 Norte 0 -- -- 63
2018-10-02 03:00:00 11.4 8 Norte 15 Norte 0 -- -- 56
2018-10-02 02:00:00 12.2 11 Norte 27 Nordeste 0 -- -- 53
2018-10-02 01:00:00 13 13 Nordeste 23 Norte 0 -- -- 48
2018-10-02 00:00:00 15 10 Norte 24 Nordeste 0 -- -- 40
2018-10-01 23:00:00 16.4 15 Nordeste 32 Nordeste 0 -- -- 35
2018-10-01 22:00:00 16.8 14 Nordeste 37 Nordeste 0 -- -- 38
2018-10-01 21:00:00 18.5 19 Nordeste 36 Nordeste 0 -- -- 34
2018-10-01 20:00:00 20.2 14 Nordeste 35 Nordeste 0 -- -- 33
2018-10-01 19:00:00 21.8 20 Nordeste 35 Norte 0 -- -- 30
2018-10-01 18:00:00 22.4 19 Nordeste 41 Nordeste 0 -- -- 31
2018-10-01 17:00:00 22.7 23 Nordeste 41 Nordeste 0 -- -- 31
2018-10-01 16:00:00 22.4 21 Norte 39 Norte 0 -- -- 32
2018-10-01 15:00:00 21.5 21 Norte 40 Nordeste 0 -- -- 34
2018-10-01 14:00:00 20.2 27 Norte 43 Norte 0 -- -- 37
2018-10-01 13:00:00 18.9 21 Norte 37 Norte 0 -- -- 37
2018-10-01 12:00:00 16.9 16 Nordeste 38 Nordeste 0 -- -- 46
2018-10-01 11:00:00 14.6 21 Norte 35 Nordeste 0 -- -- 54
2018-10-01 10:00:00 11.9 15 Nordeste 30 Norte 0 -- -- 66
2018-10-01 09:00:00 10.1 18 Norte 27 Norte 0 -- -- 69
2018-10-01 08:00:00 9.4 8 Norte 14 Norte 0 -- -- 65
2018-10-01 07:00:00 10.6 10 Norte 18 Norte 0 -- -- 62
2018-10-01 06:00:00 11.4 9 Norte 15 Norte 0 -- -- 59
2018-10-01 05:00:00 12 8 Noroeste 11 Norte 0 -- -- 63
2018-10-01 04:00:00 12 5 Sur 7 Sur 0 -- -- 67
2018-10-01 03:00:00 15.3 5 Nordeste 13 Nordeste 0 -- -- 57
2018-10-01 02:00:00 14.8 2 Noroeste 6 Sur 0 -- -- 55
2018-10-01 01:00:00 17.3 4 Oeste 11 Norte 0 -- -- 47
2018-10-01 00:00:00 18.9 9 Norte 14 Norte 0 -- -- 43
2018-09-30 23:00:00 19.4 8 Noroeste 13 Norte 0 -- -- 41
2018-09-30 22:00:00 21 9 Noroeste 23 Noroeste 0 -- -- 38
2018-09-30 21:00:00 21.5 6 Noroeste 13 Noroeste 0 -- -- 37
2018-09-30 20:00:00 24.2 12 Noroeste 22 Norte 0 -- -- 34
2018-09-30 19:00:00 26.4 15 Norte 28 Noroeste 0 -- -- 33
2018-09-30 18:00:00 27.1 17 Noroeste 28 Noroeste 0 -- -- 31
2018-09-30 17:00:00 27.8 21 Noroeste 28 Noroeste 0 -- -- 31
2018-09-30 16:00:00 27.5 6 Oeste 22 Noroeste 0 -- -- 33
2018-09-30 15:00:00 27.1 10 Nordeste 26 Norte 0 -- -- 32
2018-09-30 14:00:00 26.3 9 Noroeste 19 Oeste 0 -- -- 36
2018-09-30 13:00:00 24.3 8 Norte 15 Norte 0 -- -- 44
2018-09-30 12:00:00 22.7 3 Este 8 Noroeste 0 -- -- 51
2018-09-30 11:00:00 18.5 0 Calma 8 Sur 0 -- -- 68
2018-09-30 10:00:00 13 6 Sur 14 Sur 0 -- -- 83
2018-09-30 09:00:00 9.9 12 Sur 14 Sur 0 -- -- 88
2018-09-30 08:00:00 10.1 10 Sur 13 Sur 0 -- -- 84
2018-09-30 07:00:00 10.3 9 Sur 12 Sur 0 -- -- 84
2018-09-30 06:00:00 10.9 12 Sur 16 Sur 0 -- -- 80
2018-09-30 05:00:00 11.5 13 Sur 15 Sudeste 0 -- -- 76
2018-09-30 04:00:00 12.3 8 Sur 17 Sur 0 -- -- 74
2018-09-30 03:00:00 12.9 11 Sur 14 Sur 0 -- -- 74
2018-09-30 02:00:00 13.5 11 Sur 14 Sur 0 -- -- 75
2018-09-30 01:00:00 16.4 5 Noroeste 10 Noroeste 0 -- -- 58
2018-09-30 00:00:00 15.9 6 Sudoeste 13 Sudeste 0 -- -- 66
2018-09-29 23:00:00 18.8 4 Nordeste 13 Este 0 -- -- 51
2018-09-29 22:00:00 21.6 2 Noroeste 7 Noroeste 0 -- -- 41
2018-09-29 21:00:00 22.5 2 Noroeste 9 Noroeste 0 -- -- 37
2018-09-29 20:00:00 25.3 4 Noroeste 14 Noroeste 0 -- -- 34
2018-09-29 19:00:00 27.1 9 Norte 16 Norte 0 -- -- 30
2018-09-29 18:00:00 28.3 11 Noroeste 18 Noroeste 0 -- -- 28
2018-09-29 17:00:00 27.6 9 Nordeste 23 Noroeste 0 -- -- 29
2018-09-29 16:00:00 27.1 12 Norte 22 Norte 0 -- -- 30
2018-09-29 15:00:00 27.1 9 Norte 22 Oeste 0 -- -- 31
2018-09-29 14:00:00 25.6 5 Norte 14 Norte 0 -- -- 39
2018-09-29 13:00:00 23.8 6 Noroeste 10 Noroeste 0 -- -- 45
2018-09-29 12:00:00 21 3 Noroeste 6 Noroeste 0 -- -- 56
2018-09-29 11:00:00 17.1 5 Sur 8 Sur 0 -- -- 72
2018-09-29 10:00:00 11.9 0 Calma 9 Sur 0 -- -- 90
2018-09-29 09:00:00 10.4 3 Sudeste 10 Sur 0 -- -- 92
2018-09-29 08:00:00 10.1 8 Sur 9 Sur 0 -- -- 90
2018-09-29 07:00:00 11.5 2 Noroeste 10 Sur 0 -- -- 91
2018-09-29 06:00:00 10.9 9 Sur 14 Sur 0 -- -- 87
2018-09-29 05:00:00 11.9 10 Sur 12 Sur 0 -- -- 83
2018-09-29 04:00:00 12.8 9 Sur 17 Sur 0 -- -- 80
2018-09-29 03:00:00 13.2 9 Sur 13 Sur 0 -- -- 78
2018-09-29 02:00:00 15 3 Sudeste 8 Sudeste 0 -- -- 73
2018-09-29 01:00:00 17.7 3 Sudoeste 7 Oeste 0 -- -- 55
2018-09-29 00:00:00 16.9 6 Sur 12 Sudeste 0 -- -- 60
2018-09-28 23:00:00 20.5 9 Este 13 Este 0 -- -- 45
2018-09-28 22:00:00 21.7 8 Este 12 Este 0 -- -- 43
2018-09-28 21:00:00 23.5 7 Nordeste 13 Nordeste 0 -- -- 39
2018-09-28 20:00:00 25.7 5 Nordeste 16 Nordeste 0 -- -- 36
2018-09-28 19:00:00 27.4 10 Norte 19 Nordeste 0 -- -- 34
2018-09-28 18:00:00 27.4 11 Norte 27 Norte 0 -- -- 34
2018-09-28 17:00:00 27.8 13 Norte 21 Norte 0 -- -- 35
2018-09-28 16:00:00 27.6 16 Norte 29 Norte 0 -- -- 34
2018-09-28 15:00:00 26.9 10 Norte 23 Norte 0 -- -- 37
2018-09-28 14:00:00 25.8 10 Norte 16 Noroeste 0 -- -- 44
2018-09-28 13:00:00 23.7 9 Norte 15 Norte 0 -- -- 49
2018-09-28 12:00:00 21.9 8 Norte 12 Norte 0 -- -- 56
2018-09-28 11:00:00 18.7 2 Norte 6 Sudeste 0 -- -- 74
2018-09-28 10:00:00 14.6 4 Sur 8 Sur 0 -- -- 91
2018-09-28 09:00:00 12.6 5 Sur 13 Sudeste 0 -- -- 92
2018-09-28 08:00:00 12.1 9 Sur 14 Sudeste 0 -- -- 92
2018-09-28 07:00:00 12.5 9 Sur 12 Sur 0 -- -- 91
2018-09-28 06:00:00 13 10 Sur 13 Sur 0 -- -- 89
2018-09-28 05:00:00 13.4 10 Sur 13 Sur 0 -- -- 89
2018-09-28 04:00:00 14 9 Sur 12 Sur 0 -- -- 89
2018-09-28 03:00:00 15.3 4 Sur 9 Sur 0 -- -- 83
2018-09-28 02:00:00 15.7 8 Sur 11 Sudeste 0 -- -- 83
2018-09-28 01:00:00 17.4 0 Calma 6 Sur 0 -- -- 73
2018-09-28 00:00:00 18.7 5 Sur 9 Sur 0 -- -- 69
2018-09-27 23:00:00 20.4 0 Calma 6 Sur 0 -- -- 62
2018-09-27 22:00:00 21.2 4 Noroeste 12 Noroeste 0 -- -- 59
2018-09-27 21:00:00 22.5 8 Noroeste 23 Oeste 0 -- -- 54
2018-09-27 20:00:00 24 11 Oeste 18 Oeste 0 -- -- 51
2018-09-27 19:00:00 26.2 3 Sudoeste 9 Sudeste 0 -- -- 43
2018-09-27 18:00:00 26.4 3 Noroeste 17 Este 0 -- -- 41
2018-09-27 17:00:00 27.5 13 Este 22 Nordeste 0 -- -- 40
2018-09-27 16:00:00 27.4 4 Noroeste 21 Norte 0 -- -- 39
2018-09-27 15:00:00 26.4 7 Nordeste 26 Nordeste 0 -- -- 42
2018-09-27 14:00:00 26 8 Norte 18 Norte 0 -- -- 43
2018-09-27 13:00:00 25 5 Nordeste 14 Noroeste 0 -- -- 48
2018-09-27 12:00:00 23 5 Norte 10 Norte 0 -- -- 54
2018-09-27 11:00:00 20.9 4 Norte 7 Norte 0 -- -- 62
2018-09-27 10:00:00 18.6 2 Sur 14 Sur 0 -- -- 71
2018-09-27 09:00:00 17.3 9 Sudeste 24 Sur 0 -- -- 75
2018-09-27 08:00:00 17.4 10 Sudeste 27 Sur 0 -- -- 74
2018-09-27 07:00:00 18.1 17 Sur 32 Sur 0 -- -- 71
2018-09-27 06:00:00 18.4 18 Sur 31 Sudeste 0 -- -- 73
2018-09-27 05:00:00 19.7 18 Sur 32 Sur 0 -- -- 68
2018-09-27 04:00:00 20.7 16 Sur 25 Sur 0 -- -- 63
2018-09-27 03:00:00 20.4 12 Sur 23 Sur 0 -- -- 63
2018-09-27 02:00:00 20.2 12 Sur 20 Sur 0 -- -- 58
2018-09-27 01:00:00 19.7 9 Sudeste 23 Sur 0 -- -- 58
2018-09-27 00:00:00 18.9 9 Sur 15 Sur 0 -- -- 71
2018-09-26 23:00:00 19.6 8 Sudeste 17 Este 0 -- -- 69
2018-09-26 22:00:00 20.7 8 Sudeste 15 Nordeste 0 -- -- 64
2018-09-26 21:00:00 22.2 12 Norte 19 Nordeste 0 -- -- 56
2018-09-26 20:00:00 24 7 Sudeste 27 Sudeste 0 -- -- 51
2018-09-26 19:00:00 24.8 15 Sur 31 Sur 0 -- -- 51
2018-09-26 18:00:00 25.5 18 Sur 38 Sur 0 -- -- 51
2018-09-26 17:00:00 26.1 22 Sur 39 Sudeste 0 -- -- 47
2018-09-26 16:00:00 25.8 22 Sur 41 Sur 0 -- -- 50
2018-09-26 15:00:00 26 24 Sur 39 Sur 0 -- -- 52
2018-09-26 14:00:00 25.4 24 Sur 39 Sur 0 -- -- 53
2018-09-26 13:00:00 24.9 17 Sur 32 Sur 0 -- -- 56
2018-09-26 12:00:00 23.1 13 Sur 23 Sur 0 -- -- 59
2018-09-26 11:00:00 17.7 3 Norte 8 Norte 0 -- -- 53
2018-09-26 10:00:00 15.2 6 Norte 9 Norte 0 -- -- 56
2018-09-26 09:00:00 13.3 7 Sur 14 Sur 0 -- -- 68
2018-09-26 08:00:00 12.8 2 Sur 6 Nordeste 0 -- -- 70
2018-09-26 07:00:00 13.7 2 Sudoeste 5 Noroeste 0 -- -- 69
2018-09-26 06:00:00 14.5 3 Norte 8 Norte 0 -- -- 65
2018-09-26 05:00:00 14 3 Noroeste 17 Sudeste 0 -- -- 71
2018-09-26 04:00:00 14.2 6 Sur 11 Sudeste 0 -- -- 71
2018-09-26 03:00:00 14.2 9 Sur 15 Sur 0 -- -- 72
2018-09-26 02:00:00 15 12 Sur 15 Sur 0 -- -- 70
2018-09-26 01:00:00 15.5 6 Sur 14 Sur 0 -- -- 70
2018-09-26 00:00:00 18.2 5 Sur 8 Sur 0 -- -- 53
2018-09-25 23:00:00 20.3 0 Calma 10 Este 0 -- -- 46
2018-09-25 22:00:00 22 5 Nordeste 14 Nordeste 0 -- -- 41
2018-09-25 21:00:00 23.9 7 Nordeste 12 Nordeste 0 -- -- 39
2018-09-25 20:00:00 26.6 8 Norte 17 Norte 0 -- -- 34
2018-09-25 19:00:00 28 10 Norte 18 Noroeste 0 -- -- 32
2018-09-25 18:00:00 28.3 7 Norte 19 Noroeste 0 -- -- 32
2018-09-25 17:00:00 27.7 7 Noroeste 15 Noroeste 0 -- -- 31
2018-09-25 16:00:00 26.7 7 Noroeste 15 Noroeste 0 -- -- 33
2018-09-25 15:00:00 24.1 6 Norte 15 Noroeste 0 -- -- 33
2018-09-25 14:00:00 21.7 6 Norte 14 Noroeste 0 -- -- 36
2018-09-25 13:00:00 19.1 5 Norte 15 Norte 0 -- -- 39
2018-09-25 12:00:00 16.2 5 Norte 12 Norte 0 -- -- 45
2018-09-25 11:00:00 13.6 7 Norte 14 Norte 0 -- -- 47
2018-09-25 10:00:00 11.1 8 Norte 14 Norte 0 -- -- 51
2018-09-25 09:00:00 9.5 6 Noroeste 9 Noroeste 0 -- -- 61
2018-09-25 08:00:00 10 5 Noroeste 13 Norte 0 -- -- 67
2018-09-25 07:00:00 11 8 Norte 14 Norte 0 -- -- 65
2018-09-25 06:00:00 11.8 8 Noroeste 19 Norte 0 -- -- 64
2018-09-25 05:00:00 13.2 13 Norte 17 Norte 0 -- -- 60
2018-09-25 04:00:00 14.5 9 Norte 16 Noroeste 0 -- -- 59
2018-09-25 03:00:00 16.2 10 Norte 17 Norte 0 -- -- 58
2018-09-25 02:00:00 17.5 8 Norte 16 Norte 0 -- -- 58
2018-09-25 01:00:00 19.2 9 Norte 15 Norte 0 -- -- 54
2018-09-25 00:00:00 20.2 10 Norte 16 Norte 0 -- -- 54
2018-09-24 23:00:00 21.7 8 Norte 15 Norte 0 -- -- 51
2018-09-24 22:00:00 23.4 8 Norte 17 Nordeste 0 -- -- 48
2018-09-24 21:00:00 25 9 Norte 18 Nordeste 0 -- -- 45
2018-09-24 20:00:00 27.8 11 Nordeste 24 Norte 0 -- -- 39
2018-09-24 19:00:00 29.5 13 Norte 23 Noroeste 0 -- -- 36
2018-09-24 18:00:00 30 15 Norte 26 Noroeste 0 -- -- 36
2018-09-24 17:00:00 30.1 10 Norte 25 Norte 0 -- -- 36
2018-09-24 16:00:00 29.4 12 Norte 26 Norte 0 -- -- 38
2018-09-24 15:00:00 28.8 14 Norte 25 Noroeste 0 -- -- 41
2018-09-24 14:00:00 27.4 12 Norte 21 Norte 0 -- -- 44
2018-09-24 13:00:00 24.7 9 Norte 17 Noroeste 0 -- -- 50
2018-09-24 12:00:00 21.9 9 Norte 15 Norte 0 -- -- 56
2018-09-24 11:00:00 18.5 7 Norte 13 Norte 0 -- -- 63
2018-09-24 10:00:00 15.2 6 Norte 10 Norte 0 -- -- 73
2018-09-24 09:00:00 11 6 Sur 9 Sur 0 -- -- 85
2018-09-24 08:00:00 11.1 2 Sudeste 6 Sur 0 -- -- 80
2018-09-24 07:00:00 11.4 5 Sur 12 Sur 0 -- -- 81
2018-09-24 06:00:00 12.6 9 Sur 11 Sur 0 -- -- 76
2018-09-24 05:00:00 13.4 6 Sur 12 Sur 0 -- -- 72
2018-09-24 04:00:00 13.7 9 Sur 14 Sur 0 -- -- 72
2018-09-24 03:00:00 15.4 8 Sur 10 Sudeste 0 -- -- 65
2018-09-24 02:00:00 19.2 3 Noroeste 13 Norte 0 -- -- 45
2018-09-24 01:00:00 19.2 3 Oeste 6 Noroeste 0 -- -- 43
2018-09-24 00:00:00 20.2 4 Oeste 12 Nordeste 0 -- -- 40
2018-09-23 23:00:00 22.9 7 Nordeste 11 Nordeste 0 -- -- 35
2018-09-23 22:00:00 24.3 6 Nordeste 15 Nordeste 0 -- -- 31
2018-09-23 21:00:00 25.7 8 Nordeste 12 Norte 0 -- -- 31
2018-09-23 20:00:00 28.9 9 Norte 22 Norte 0 -- -- 27
2018-09-23 19:00:00 30.6 13 Norte 23 Norte 0 -- -- 27
2018-09-23 18:00:00 31.3 11 Norte 26 Norte 0 -- -- 27
2018-09-23 17:00:00 31.3 6 Noroeste 21 Norte 0 -- -- 26
2018-09-23 16:00:00 31.1 10 Norte 22 Norte 0 -- -- 26
2018-09-23 15:00:00 30.7 7 Oeste 28 Noroeste 0 -- -- 29
2018-09-23 14:00:00 30.1 10 Nordeste 19 Nordeste 0 -- -- 31
2018-09-23 13:00:00 28.7 4 Norte 11 Norte 0 -- -- 33
2018-09-23 12:00:00 26.5 5 Norte 8 Norte 0 -- -- 40
2018-09-23 11:00:00 22.3 0 Calma 6 Sur 0 -- -- 48
2018-09-23 10:00:00 16.1 5 Sudeste 12 Sur 0 -- -- 74
2018-09-23 09:00:00 12.5 10 Sur 16 Sur 0 -- -- 83
2018-09-23 08:00:00 12.1 11 Sur 16 Sur 0 -- -- 85
2018-09-23 07:00:00 12.5 10 Sur 13 Sur 0 -- -- 82
2018-09-23 06:00:00 12.7 10 Sur 15 Sudeste 0 -- -- 83
2018-09-23 05:00:00 13.2 11 Sur 14 Sudeste 0 -- -- 81
2018-09-23 04:00:00 14.9 6 Sur 13 Sur 0 -- -- 75
2018-09-23 03:00:00 15.9 9 Sur 12 Sudeste 0 -- -- 71
2018-09-23 02:00:00 17.4 9 Sur 11 Sur 0 -- -- 68
2018-09-23 01:00:00 21.1 5 Norte 10 Noroeste 0 -- -- 47
2018-09-23 00:00:00 19.6 4 Sudoeste 7 Sudeste 0 -- -- 53
2018-09-22 23:00:00 21.7 5 Sudeste 10 Nordeste 0 -- -- 46
2018-09-22 22:00:00 23.8 5 Nordeste 10 Norte 0 -- -- 41
2018-09-22 21:00:00 26.2 4 Norte 6 Nordeste 0 -- -- 36
2018-09-22 20:00:00 29.5 4 Oeste 10 Norte 0 -- -- 31
2018-09-22 19:00:00 31 10 Noroeste 16 Oeste 0 -- -- 28
2018-09-22 18:00:00 30.9 12 Sudeste 30 Sudeste 0 -- -- 29
2018-09-22 17:00:00 31 7 Sudeste 21 Sur 0 -- -- 28
2018-09-22 16:00:00 30.7 6 Sudeste 22 Sur 0 -- -- 30
2018-09-22 15:00:00 30.2 10 Sudeste 19 Sur 0 -- -- 30
2018-09-22 14:00:00 29 5 Norte 15 Noroeste 0 -- -- 32
2018-09-22 13:00:00 27.1 10 Noroeste 15 Noroeste 0 -- -- 35
2018-09-22 12:00:00 25 4 Norte 6 Norte 0 -- -- 41
2018-09-22 11:00:00 20.9 5 Sur 12 Sur 0 -- -- 51
2018-09-22 10:00:00 14.8 10 Sur 15 Sur 0 -- -- 68
2018-09-22 09:00:00 10.8 11 Sur 15 Sur 0 -- -- 78
2018-09-22 08:00:00 10 12 Sur 16 Sur 0 -- -- 78
2018-09-22 07:00:00 10.4 9 Sur 14 Sur 0 -- -- 77
2018-09-22 06:00:00 10.8 5 Sur 14 Sur 0 -- -- 75
2018-09-22 05:00:00 11 9 Sur 14 Sur 0 -- -- 77
2018-09-22 04:00:00 11.5 8 Sur 14 Sudeste 0 -- -- 78
2018-09-22 03:00:00 12.7 7 Sur 14 Sur 0 -- -- 75
2018-09-22 02:00:00 13.3 10 Sur 15 Sur 0 -- -- 76
2018-09-22 01:00:00 15.1 8 Sur 11 Sur 0 -- -- 66
2018-09-22 00:00:00 16.7 3 Sur 10 Sur 0 -- -- 58
2018-09-21 23:00:00 18.6 4 Sudeste 6 Sudeste 0 -- -- 43
2018-09-21 22:00:00 20.7 2 Noroeste 6 Norte 0 -- -- 42
2018-09-21 21:00:00 22.4 3 Norte 9 Norte 0 -- -- 35
2018-09-21 20:00:00 24.4 8 Norte 15 Noroeste 0 -- -- 32
2018-09-21 19:00:00 26.5 10 Noroeste 19 Noroeste 0 -- -- 30
2018-09-21 18:00:00 26.1 11 Norte 20 Norte 0 -- -- 33
2018-09-21 17:00:00 26.7 9 Noroeste 21 Noroeste 0 -- -- 35
2018-09-21 16:00:00 26.5 11 Noroeste 20 Noroeste 0 -- -- 37
2018-09-21 15:00:00 25.9 4 Noroeste 16 Norte 0 -- -- 36
2018-09-21 14:00:00 24.4 6 Norte 17 Norte 0 -- -- 42
2018-09-21 13:00:00 22.2 10 Norte 20 Noroeste 0 -- -- 51
2018-09-21 12:00:00 20.1 9 Norte 14 Norte 0 -- -- 57
2018-09-21 11:00:00 17.8 7 Norte 10 Norte 0 -- -- 68
2018-09-21 10:00:00 13.7 2 Noroeste 5 Nordeste 0 -- -- 88
2018-09-21 09:00:00 11.5 3 Nordeste 9 Sur 0 -- -- 91
2018-09-21 08:00:00 11.1 7 Sur 12 Sudeste 0 -- -- 90
2018-09-21 07:00:00 11.5 2 Norte 14 Sudeste 0 -- -- 91
2018-09-21 06:00:00 11.3 11 Sur 16 Sur 0 -- -- 89
2018-09-21 05:00:00 12.7 7 Sur 9 Sur 0 -- -- 85
2018-09-21 04:00:00 14.3 2 Norte 6 Noroeste 0 -- -- 78
2018-09-21 03:00:00 14.3 3 Sur 5 Sur 0 -- -- 78
2018-09-21 02:00:00 15.8 0 Calma 5 Sudoeste 0 -- -- 73
2018-09-21 01:00:00 17 2 Oeste 7 Norte 0 -- -- 68
2018-09-21 00:00:00 18.2 5 Noroeste 13 Noroeste 0 -- -- 64
2018-09-20 23:00:00 19.5 5 Noroeste 15 Noroeste 0 -- -- 58
2018-09-20 22:00:00 21 9 Noroeste 22 Noroeste 0 -- -- 47
2018-09-20 21:00:00 22.9 17 Noroeste 27 Noroeste 0 -- -- 41
2018-09-20 20:00:00 25.4 17 Noroeste 29 Noroeste 0 -- -- 41
2018-09-20 19:00:00 28.7 14 Oeste 22 Noroeste 0 -- -- 37
2018-09-20 18:00:00 29.2 13 Sudoeste 28 Sudoeste 0 -- -- 35
2018-09-20 17:00:00 29.2 14 Sudoeste 31 Sur 0 -- -- 35
2018-09-20 16:00:00 28.8 14 Sur 33 Sur 0 -- -- 35
2018-09-20 15:00:00 28.9 17 Sur 28 Sudoeste 0 -- -- 35
2018-09-20 14:00:00 28.5 17 Sudoeste 29 Sudoeste 0 -- -- 34
2018-09-20 13:00:00 28.1 17 Sudoeste 26 Sudoeste 0 -- -- 34
2018-09-20 12:00:00 27 12 Sur 19 Sur 0 -- -- 36
2018-09-20 11:00:00 22 8 Sur 13 Sur 0 -- -- 54
2018-09-20 10:00:00 15.5 10 Sur 17 Sur 0 -- -- 76
2018-09-20 09:00:00 11.7 12 Sur 17 Sur 0 -- -- 86
2018-09-20 08:00:00 11.4 12 Sur 14 Sur 0 -- -- 85
2018-09-20 07:00:00 11.1 12 Sur 17 Sur 0 -- -- 86
2018-09-20 06:00:00 11.9 10 Sur 13 Sudeste 0 -- -- 81
2018-09-20 05:00:00 12.5 10 Sur 12 Sur 0 -- -- 78
2018-09-20 04:00:00 12.4 12 Sur 16 Sur 0 -- -- 77
2018-09-20 03:00:00 14.4 6 Sur 11 Sur 0 -- -- 70
2018-09-20 02:00:00 14.6 9 Sur 12 Sur 0 -- -- 70
2018-09-20 01:00:00 15.5 5 Sur 13 Sur 0 -- -- 69
2018-09-20 00:00:00 18.1 9 Sudeste 12 Sudeste 0 -- -- 64